Time;durP1;ratioP1;P1;durP2;ratioP2;P2;SDS_P1;SDS_P2;PMS_P1;PMS_P2;Temp;Humidity;BMP_temperature;BMP_pressure;BME280_temperature;BME280_humidity;BME280_pressure;Samples;Min_cycle;Max_cycle;Signal;HPM_P1;HPM_P2
2023/03/06 00:00:55;;;;;;;128.80;77.93;;;;;;;-0.92;97.53;95009.09;5044649;28;20493;-67
2023/03/06 00:03:22;;;;;;;128.27;77.72;;;;;;;-1.04;98.35;95000.31;5033826;28;20025;-66
2023/03/06 00:05:47;;;;;;;103.07;72.28;;;;;;;-1.09;98.88;95002.31;5038026;28;20113;-60
2023/03/06 00:08:13;;;;;;;103.82;67.72;;;;;;;-1.13;98.76;95004.25;5040741;28;20112;-56
2023/03/06 00:10:39;;;;;;;105.72;70.25;;;;;;;-1.17;99.70;95000.16;5041611;28;20039;-55
2023/03/06 00:13:07;;;;;;;93.47;66.45;;;;;;;-1.20;99.05;94996.03;5039370;28;20025;-58
2023/03/06 00:15:33;;;;;;;103.53;66.63;;;;;;;-1.16;98.86;95001.84;5035487;28;20029;-53
2023/03/06 00:17:58;;;;;;;101.15;66.35;;;;;;;-1.17;98.04;94998.44;5043855;28;20021;-54
2023/03/06 00:20:25;;;;;;;98.78;66.53;;;;;;;-1.21;98.99;95009.88;5034984;28;20033;-56
2023/03/06 00:22:50;;;;;;;90.65;64.43;;;;;;;-1.31;99.12;95000.97;5032829;28;20037;-54
2023/03/06 00:25:19;;;;;;;90.05;63.17;;;;;;;-1.31;99.15;95006.97;5037514;28;20036;-52
2023/03/06 00:27:45;;;;;;;93.00;62.67;;;;;;;-1.35;99.99;95004.63;5038926;28;20395;-61
2023/03/06 00:30:19;;;;;;;92.22;62.42;;;;;;;-1.32;99.44;95007.03;5038463;28;20025;-61
2023/03/06 00:32:45;;;;;;;89.70;61.53;;;;;;;-1.40;99.59;95009.22;5040426;28;20483;-61
2023/03/06 00:35:11;;;;;;;93.72;64.22;;;;;;;-1.40;100.00;95006.66;5038846;28;20098;-61
2023/03/06 00:37:37;;;;;;;96.03;63.65;;;;;;;-1.43;99.71;94999.91;5039860;28;20082;-61
2023/03/06 00:40:12;;;;;;;91.50;61.53;;;;;;;-1.38;99.95;95002.22;5040438;28;20024;-61
2023/03/06 00:42:37;;;;;;;103.23;71.40;;;;;;;-1.37;99.78;95009.06;5038203;28;20407;-67
2023/03/06 00:45:04;;;;;;;98.85;65.18;;;;;;;-1.39;100.00;95001.38;5035094;28;20021;-67
2023/03/06 00:47:30;;;;;;;99.50;63.22;;;;;;;-1.44;100.00;94995.66;5042332;28;20413;-67
2023/03/06 00:49:55;;;;;;;88.13;60.80;;;;;;;-1.47;100.00;94994.06;5039141;28;20059;-67
2023/03/06 00:52:21;;;;;;;82.97;57.83;;;;;;;-1.46;100.00;95008.63;5040088;28;20060;-67
2023/03/06 00:54:46;;;;;;;94.72;66.13;;;;;;;-1.48;100.00;95005.31;5044188;28;20028;-67
2023/03/06 00:57:12;;;;;;;101.97;65.40;;;;;;;-1.48;100.00;95009.66;5031600;28;20461;-67
2023/03/06 00:59:37;;;;;;;97.85;65.05;;;;;;;-1.52;100.00;95010.75;5035163;28;20017;-66
2023/03/06 01:02:03;;;;;;;102.38;64.00;;;;;;;-1.53;100.00;95015.06;5014283;28;20068;-64
2023/03/06 01:04:28;;;;;;;90.75;61.13;;;;;;;-1.58;100.00;95017.06;5042508;28;20029;-59
2023/03/06 01:06:54;;;;;;;103.68;69.35;;;;;;;-1.66;100.00;95012.31;5039924;28;20029;-59
2023/03/06 01:09:20;;;;;;;80.90;56.17;;;;;;;-1.69;100.00;95009.06;5044505;28;20020;-59
2023/03/06 01:11:45;;;;;;;86.13;58.70;;;;;;;-1.70;100.00;95010.84;5041998;28;20053;-58
2023/03/06 01:14:11;;;;;;;111.70;67.60;;;;;;;-1.69;100.00;95009.06;5030913;28;20483;-59
2023/03/06 01:16:36;;;;;;;89.03;61.88;;;;;;;-1.70;100.00;95012.56;5031494;28;20034;-59
2023/03/06 01:19:01;;;;;;;95.72;61.47;;;;;;;-1.71;100.00;95001.44;5031479;28;20061;-58
2023/03/06 01:21:27;;;;;;;84.88;60.25;;;;;;;-1.69;100.00;95006.50;5037596;28;20029;-57
2023/03/06 01:23:52;;;;;;;90.20;61.58;;;;;;;-1.69;100.00;95003.91;5032496;28;20099;-61
2023/03/06 01:26:18;;;;;;;86.78;59.30;;;;;;;-1.75;100.00;95011.09;5035395;28;20112;-61
2023/03/06 01:28:43;;;;;;;134.75;85.78;;;;;;;-1.73;100.00;94998.91;5033846;28;20105;-61
2023/03/06 01:31:09;;;;;;;111.72;74.45;;;;;;;-1.78;100.00;95000.09;5035165;28;20040;-60
2023/03/06 01:33:36;;;;;;;91.68;63.28;;;;;;;-1.81;100.00;94995.94;5033944;28;20033;-61
2023/03/06 01:36:06;;;;;;;96.10;67.47;;;;;;;-1.82;100.00;95001.16;5034419;28;20029;-61
2023/03/06 01:38:32;;;;;;;78.22;54.65;;;;;;;-1.87;100.00;94993.69;5043675;28;20025;-60
2023/03/06 01:40:57;;;;;;;66.63;49.72;;;;;;;-1.86;100.00;94995.38;5033717;28;20017;-67
2023/03/06 01:43:29;;;;;;;66.78;48.05;;;;;;;-1.84;100.00;94984.94;5035262;28;20032;-54
2023/03/06 01:46:12;;;;;;;71.70;51.40;;;;;;;-1.83;100.00;94990.03;5031076;28;20018;-55
2023/03/06 01:48:38;;;;;;;79.90;57.90;;;;;;;-1.83;100.00;94978.88;5034735;28;20033;-56
2023/03/06 01:51:04;;;;;;;81.43;59.30;;;;;;;-1.87;100.00;94979.03;5031037;28;20033;-55
2023/03/06 01:53:30;;;;;;;74.30;54.97;;;;;;;-1.91;100.00;94984.44;5035329;28;20095;-50
2023/03/06 01:55:56;;;;;;;74.97;53.03;;;;;;;-1.92;100.00;94978.47;5031331;28;20450;-52
2023/03/06 01:58:21;;;;;;;76.95;52.40;;;;;;;-1.92;100.00;94973.28;5035941;28;20025;-59
2023/03/06 02:00:46;;;;;;;61.17;44.97;;;;;;;-1.93;100.00;94970.78;5032084;28;20025;-62
2023/03/06 02:03:19;;;;;;;59.70;43.85;;;;;;;-1.95;100.00;94983.78;5039677;28;20491;-65
2023/03/06 02:05:45;;;;;;;59.50;44.53;;;;;;;-1.98;100.00;94967.63;5031469;28;20549;-65
2023/03/06 02:08:13;;;;;;;66.55;47.17;;;;;;;-2.00;100.00;94964.31;5040775;28;20028;-65
2023/03/06 02:10:42;;;;;;;61.90;44.97;;;;;;;-2.01;100.00;94973.78;5046381;28;20682;-64
2023/03/06 02:13:08;;;;;;;63.13;46.63;;;;;;;-2.00;100.00;94966.88;5026387;28;20033;-65
2023/03/06 02:15:33;;;;;;;64.13;45.38;;;;;;;-2.05;100.00;94962.81;5042359;28;20669;-65
2023/03/06 02:17:59;;;;;;;60.35;45.35;;;;;;;-2.07;100.00;94953.47;5038377;28;20079;-67
2023/03/06 02:20:47;;;;;;;61.58;45.00;;;;;;;-2.09;100.00;94958.75;5042834;28;20078;-64
2023/03/06 02:23:31;;;;;;;68.55;49.33;;;;;;;-2.06;100.00;94952.56;5048207;28;20033;-67
2023/03/06 02:25:58;;;;;;;68.38;48.72;;;;;;;-2.05;100.00;94949.06;5048483;28;20154;-66
2023/03/06 02:28:24;;;;;;;72.18;46.92;;;;;;;-2.07;100.00;94943.16;5038974;28;20028;-67
2023/03/06 02:30:52;;;;;;;69.18;49.30;;;;;;;-2.09;100.00;94942.41;5035558;28;20446;-67
2023/03/06 02:33:20;;;;;;;78.82;52.92;;;;;;;-2.10;100.00;94933.88;5050066;28;20503;-67
2023/03/06 02:35:50;;;;;;;80.55;55.30;;;;;;;-2.13;100.00;94926.28;5039168;28;20402;-66
2023/03/06 02:38:18;;;;;;;84.00;59.17;;;;;;;-2.11;100.00;94924.44;5047835;28;20024;-60
2023/03/06 02:40:47;;;;;;;81.82;59.47;;;;;;;-2.15;100.00;94925.53;5034935;28;20433;-63
2023/03/06 02:43:15;;;;;;;81.32;57.25;;;;;;;-2.18;100.00;94925.69;5038098;28;20061;-63
2023/03/06 02:45:46;;;;;;;78.82;57.47;;;;;;;-2.21;100.00;94923.28;5043449;28;20025;-63
2023/03/06 02:48:13;;;;;;;74.97;54.92;;;;;;;-2.24;100.00;94913.94;5038364;28;20560;-63
2023/03/06 02:50:39;;;;;;;74.82;53.50;;;;;;;-2.14;100.00;94922.03;5034797;28;20037;-62
2023/03/06 02:53:05;;;;;;;91.50;65.47;;;;;;;-2.09;100.00;94919.22;5041024;28;20028;-63
2023/03/06 02:55:31;;;;;;;84.55;58.75;;;;;;;-2.11;100.00;94910.72;5046466;28;20549;-63
2023/03/06 02:57:57;;;;;;;75.38;51.90;;;;;;;-1.93;100.00;94916.59;5041896;28;20048;-59
2023/03/06 03:00:22;;;;;;;83.70;53.03;;;;;;;-1.97;100.00;94920.28;5032823;28;20033;-63
2023/03/06 03:02:48;;;;;;;90.60;55.65;;;;;;;-2.04;100.00;94910.31;5031121;28;20021;-62
2023/03/06 03:05:13;;;;;;;84.95;53.53;;;;;;;-2.04;100.00;94910.31;5048095;28;20510;-63
2023/03/06 03:07:39;;;;;;;75.72;50.75;;;;;;;-2.07;100.00;94910.47;5021067;28;20122;-63
2023/03/06 03:10:05;;;;;;;72.22;48.95;;;;;;;-2.14;100.00;94911.72;5053353;28;20115;-63
2023/03/06 03:12:31;;;;;;;77.53;50.70;;;;;;;-2.19;100.00;94914.56;5052118;28;20124;-63
2023/03/06 03:14:56;;;;;;;80.63;51.28;;;;;;;-2.15;100.00;94907.47;5048884;28;20186;-63
2023/03/06 03:17:22;;;;;;;71.00;48.47;;;;;;;-2.12;100.00;94915.03;5046780;28;20025;-60
2023/03/06 03:19:48;;;;;;;65.88;45.63;;;;;;;-2.12;100.00;94911.63;5045230;28;20534;-60
2023/03/06 03:22:14;;;;;;;67.32;43.75;;;;;;;-2.15;100.00;94910.03;5039604;28;20026;-59
2023/03/06 03:24:40;;;;;;;65.82;46.25;;;;;;;-2.15;100.00;94915.22;5043929;28;20027;-57
2023/03/06 03:27:06;;;;;;;151.88;98.53;;;;;;;-2.15;100.00;94910.03;5038981;28;20028;-59
2023/03/06 03:29:31;;;;;;;139.52;89.18;;;;;;;-2.18;100.00;94915.38;5050842;28;20056;-59
2023/03/06 03:31:56;;;;;;;112.10;70.55;;;;;;;-2.22;100.00;94908.72;5050945;28;20024;-60
2023/03/06 03:34:22;;;;;;;114.78;72.80;;;;;;;-2.29;100.00;94910.81;5046304;28;20076;-60
2023/03/06 03:36:48;;;;;;;71.15;47.20;;;;;;;-2.20;100.00;94912.91;5038360;28;20079;-67
2023/03/06 03:39:14;;;;;;;72.60;51.67;;;;;;;-2.36;100.00;94907.72;5048130;28;20025;-58
2023/03/06 03:41:39;;;;;;;78.07;52.63;;;;;;;-2.42;100.00;94897.75;5050785;28;20048;-56
2023/03/06 03:44:04;;;;;;;63.85;47.28;;;;;;;-2.42;100.00;94895.16;5046431;28;20026;-58
2023/03/06 03:46:30;;;;;;;56.90;41.95;;;;;;;-2.36;100.00;94896.59;5041212;28;20430;-59
2023/03/06 03:48:55;;;;;;;56.15;39.53;;;;;;;-2.27;100.00;94898.66;5045142;28;20086;-59
2023/03/06 03:51:21;;;;;;;56.15;40.95;;;;;;;-2.17;100.00;94904.16;5048139;28;20025;-58
2023/03/06 03:53:46;;;;;;;56.28;39.67;;;;;;;-2.17;100.00;94906.72;5046501;28;20635;-59
2023/03/06 03:56:12;;;;;;;57.17;39.97;;;;;;;-2.24;100.00;94907.97;5048503;28;20059;-67
2023/03/06 03:58:38;;;;;;;52.85;38.85;;;;;;;-2.32;100.00;94901.50;5047464;28;20025;-60
2023/03/06 04:01:04;;;;;;;51.17;38.95;;;;;;;-2.37;100.00;94903.47;5047850;28;20040;-60
2023/03/06 04:03:29;;;;;;;55.95;39.38;;;;;;;-2.38;100.00;94906.97;5045334;28;20017;-61
2023/03/06 04:05:56;;;;;;;56.42;39.95;;;;;;;-2.29;100.00;94904.81;5047745;28;20043;-61
2023/03/06 04:08:23;;;;;;;50.40;35.00;;;;;;;-2.28;100.00;94919.38;5047000;28;20512;-59
2023/03/06 04:10:50;;;;;;;59.20;39.50;;;;;;;-2.32;100.00;94914.41;5058099;28;20036;-60
2023/03/06 04:13:18;;;;;;;48.80;38.33;;;;;;;-2.35;100.00;94908.56;5039457;28;20029;-64
2023/03/06 04:15:43;;;;;;;57.22;40.90;;;;;;;-2.39;100.00;94907.88;5042505;28;20544;-56
2023/03/06 04:18:09;;;;;;;57.05;40.65;;;;;;;-2.42;100.00;94902.06;5029330;28;20025;-65
2023/03/06 04:20:34;;;;;;;54.47;40.08;;;;;;;-2.50;100.00;94903.31;5033056;28;20021;-65
2023/03/06 04:22:59;;;;;;;50.08;39.03;;;;;;;-2.53;100.00;94893.16;5039007;28;20040;-65
2023/03/06 04:25:25;;;;;;;54.40;39.63;;;;;;;-2.56;100.00;94895.06;5029912;28;20474;-64
2023/03/06 04:27:50;;;;;;;55.58;39.47;;;;;;;-2.55;100.00;94901.88;5031078;28;20029;-64
2023/03/06 04:30:15;;;;;;;58.15;42.17;;;;;;;-2.57;100.00;94886.50;5038885;28;20112;-64
2023/03/06 04:32:41;;;;;;;52.33;39.40;;;;;;;-2.59;100.00;94891.72;5042982;28;20056;-65
2023/03/06 04:35:06;;;;;;;56.45;39.90;;;;;;;-2.60;100.00;94889.25;5029710;28;20415;-60
2023/03/06 04:37:32;;;;;;;54.65;40.75;;;;;;;-2.64;100.00;94888.56;5044162;28;20032;-56
2023/03/06 04:39:57;;;;;;;48.25;38.53;;;;;;;-2.65;100.00;94875.78;5045177;28;20041;-57
2023/03/06 04:42:23;;;;;;;57.55;40.83;;;;;;;-2.67;100.00;94873.28;5042586;28;20102;-55
2023/03/06 04:44:48;;;;;;;61.60;41.55;;;;;;;-2.70;100.00;94870.88;5045077;28;20036;-55
2023/03/06 04:47:13;;;;;;;59.35;42.75;;;;;;;-2.72;100.00;94879.59;5042617;28;20033;-56
2023/03/06 04:49:39;;;;;;;54.17;40.53;;;;;;;-2.60;100.00;94877.19;5048801;28;20021;-56
2023/03/06 04:52:04;;;;;;;56.55;41.22;;;;;;;-2.59;100.00;94880.59;5043275;28;20100;-63
2023/03/06 04:54:30;;;;;;;58.17;41.25;;;;;;;-2.55;100.00;94876.94;5047705;28;20130;-67
2023/03/06 04:56:55;;;;;;;59.33;40.40;;;;;;;-2.46;100.00;94878.19;5047589;28;20033;-56
2023/03/06 04:59:20;;;;;;;53.05;40.55;;;;;;;-2.53;100.00;94874.31;5048254;28;20486;-54
2023/03/06 05:01:46;;;;;;;59.22;42.10;;;;;;;-2.62;100.00;94876.44;5046159;28;20605;-56
2023/03/06 05:04:11;;;;;;;54.85;40.08;;;;;;;-2.63;100.00;94881.69;5049765;28;20494;-53
2023/03/06 05:06:36;;;;;;;55.17;41.58;;;;;;;-2.71;100.00;94876.94;5035554;28;20009;-54
2023/03/06 05:09:02;;;;;;;54.20;40.25;;;;;;;-2.74;100.00;94880.50;5048953;28;20114;-52
2023/03/06 05:11:27;;;;;;;53.70;38.97;;;;;;;-2.76;100.00;94878.94;5057935;28;20055;-66
2023/03/06 05:13:53;;;;;;;58.78;40.90;;;;;;;-2.70;100.00;94880.31;5047696;28;20025;-64
2023/03/06 05:16:18;;;;;;;52.70;39.20;;;;;;;-2.75;100.00;94880.59;5048792;28;20049;-59
2023/03/06 05:18:43;;;;;;;61.53;41.35;;;;;;;-2.82;100.00;94872.34;5034190;28;20040;-59
2023/03/06 05:21:09;;;;;;;61.15;46.45;;;;;;;-2.86;100.00;94872.59;5036871;28;20037;-57
2023/03/06 05:23:37;;;;;;;57.90;43.60;;;;;;;-2.91;100.00;94875.38;5036232;28;20392;-58
2023/03/06 05:26:10;;;;;;;59.03;41.47;;;;;;;-2.93;100.00;94874.63;5047857;28;20482;-57
2023/03/06 05:28:36;;;;;;;71.57;52.35;;;;;;;-2.94;100.00;94875.56;5048440;28;20072;-56
2023/03/06 05:31:02;;;;;;;68.18;51.60;;;;;;;-2.96;100.00;94878.22;5046091;28;20073;-59
2023/03/06 05:33:27;;;;;;;72.00;51.08;;;;;;;-2.97;100.00;94875.72;5029304;28;20025;-68
2023/03/06 05:35:52;;;;;;;74.07;52.40;;;;;;;-3.01;100.00;94877.59;5029697;28;20107;-63
2023/03/06 05:38:18;;;;;;;69.57;50.45;;;;;;;-3.07;100.00;94880.50;5029232;28;20088;-63
2023/03/06 05:40:44;;;;;;;66.85;48.67;;;;;;;-3.11;100.00;94886.72;5029886;28;20040;-63
2023/03/06 05:43:10;;;;;;;65.72;45.58;;;;;;;-3.10;100.00;94881.50;5029499;28;20033;-63
2023/03/06 05:45:37;;;;;;;73.20;56.47;;;;;;;-3.09;100.00;94879.75;5030204;28;20044;-63
2023/03/06 05:48:02;;;;;;;73.05;57.30;;;;;;;-3.10;100.00;94888.41;5029550;28;20021;-63
2023/03/06 05:50:28;;;;;;;71.35;51.78;;;;;;;-3.13;100.00;94884.22;5042259;28;20021;-67
2023/03/06 05:52:53;;;;;;;68.45;50.15;;;;;;;-3.14;100.00;94889.47;5030254;28;20028;-63
2023/03/06 05:55:20;;;;;;;64.75;50.28;;;;;;;-3.12;100.00;94887.66;5033756;28;20017;-57
2023/03/06 05:57:46;;;;;;;60.92;46.78;;;;;;;-3.11;100.00;94884.97;5038586;28;20041;-59
2023/03/06 06:00:13;;;;;;;62.55;45.35;;;;;;;-3.13;100.00;94884.22;5034767;28;20514;-59
2023/03/06 06:02:40;;;;;;;64.47;45.92;;;;;;;-3.15;100.00;94893.78;5038570;28;20028;-60
2023/03/06 06:05:06;;;;;;;66.43;46.58;;;;;;;-3.15;100.00;94895.53;5031853;28;20514;-60
2023/03/06 06:07:31;;;;;;;64.85;46.05;;;;;;;-3.11;100.00;94897.03;5034731;28;20033;-59
2023/03/06 06:09:57;;;;;;;61.80;44.75;;;;;;;-3.14;100.00;94894.63;5044127;28;20474;-59
2023/03/06 06:12:23;;;;;;;62.60;43.95;;;;;;;-3.18;100.00;94892.22;5039213;28;20033;-67
2023/03/06 06:14:48;;;;;;;60.10;43.22;;;;;;;-3.21;100.00;94894.09;5044742;28;20028;-59
2023/03/06 06:17:15;;;;;;;63.88;45.72;;;;;;;-3.24;100.00;94892.50;5040738;28;20087;-59
2023/03/06 06:19:40;;;;;;;60.17;45.55;;;;;;;-3.29;100.00;94893.66;5044482;28;20524;-60
2023/03/06 06:22:06;;;;;;;56.85;42.78;;;;;;;-3.29;100.00;94897.06;5046871;28;20025;-60
2023/03/06 06:24:31;;;;;;;58.25;45.15;;;;;;;-3.20;100.00;94900.91;5050462;28;20025;-60
2023/03/06 06:26:58;;;;;;;65.47;48.05;;;;;;;-3.15;100.00;94900.69;5046827;28;20046;-60
2023/03/06 06:29:24;;;;;;;57.15;42.90;;;;;;;-3.18;100.00;94902.50;5049209;28;20416;-67
2023/03/06 06:31:51;;;;;;;61.88;43.80;;;;;;;-3.21;100.00;94905.22;5040700;28;20021;-60
2023/03/06 06:34:17;;;;;;;58.13;45.20;;;;;;;-3.24;100.00;94912.28;5039940;28;20025;-59
2023/03/06 06:36:42;;;;;;;71.40;45.42;;;;;;;-3.23;100.00;94914.75;5041092;28;20437;-57
2023/03/06 06:39:11;;;;;;;69.78;43.35;;;;;;;-3.19;100.00;94906.00;5042011;28;20021;-59
2023/03/06 06:41:37;;;;;;;61.17;46.35;;;;;;;-3.14;100.00;94915.22;5044206;28;20098;-59
2023/03/06 06:44:07;;;;;;;62.22;45.00;;;;;;;-3.17;100.00;94905.91;5039950;28;20037;-59
2023/03/06 06:46:34;;;;;;;64.55;45.50;;;;;;;-3.18;100.00;94914.53;5041509;28;20619;-60
2023/03/06 06:49:01;;;;;;;63.20;44.67;;;;;;;-3.18;100.00;94915.38;5034042;28;20559;-58
2023/03/06 06:51:30;;;;;;;61.45;45.30;;;;;;;-3.17;100.00;94922.19;5037698;28;20078;-60
2023/03/06 06:53:55;;;;;;;70.00;49.58;;;;;;;-3.14;100.00;94926.34;5037084;28;20458;-60
2023/03/06 06:56:20;;;;;;;67.38;46.08;;;;;;;-3.11;100.00;94915.06;5040426;28;20120;-60
2023/03/06 06:58:46;;;;;;;68.22;46.08;;;;;;;-3.06;100.00;94915.66;5049314;28;20549;-60
2023/03/06 07:01:12;;;;;;;75.40;45.60;;;;;;;-3.01;100.00;94916.25;5042436;28;20029;-61
2023/03/06 07:03:39;;;;;;;72.35;45.17;;;;;;;-2.94;100.00;94917.63;5049664;28;20021;-65
2023/03/06 07:06:05;;;;;;;79.35;47.88;;;;;;;-2.85;100.00;94912.88;5042445;28;20096;-63
2023/03/06 07:08:31;;;;;;;86.72;50.70;;;;;;;-2.83;100.00;94908.47;5046645;28;20522;-58
2023/03/06 07:10:57;;;;;;;88.75;54.78;;;;;;;-2.77;100.00;94915.88;5042975;28;20075;-63
2023/03/06 07:13:23;;;;;;;103.53;60.67;;;;;;;-2.67;100.00;94909.34;5031745;28;20040;-62
2023/03/06 07:15:48;;;;;;;93.78;60.10;;;;;;;-2.62;100.00;94909.13;5033125;28;20043;-62
2023/03/06 07:18:13;;;;;;;99.63;57.40;;;;;;;-2.62;100.00;94906.53;5046157;28;20047;-62
2023/03/06 07:20:39;;;;;;;99.22;60.17;;;;;;;-2.59;100.00;94908.97;5050811;28;20032;-61
2023/03/06 07:23:06;;;;;;;96.70;59.72;;;;;;;-2.52;100.00;94914.63;5038296;28;20071;-63
2023/03/06 07:25:32;;;;;;;78.85;51.83;;;;;;;-2.41;100.00;94914.88;5040167;28;20036;-62
2023/03/06 07:27:57;;;;;;;85.22;53.97;;;;;;;-2.33;100.00;94920.44;5048129;28;20036;-61
2023/03/06 07:30:23;;;;;;;108.50;72.22;;;;;;;-2.25;100.00;94919.22;5050111;28;20107;-64
2023/03/06 07:32:52;;;;;;;121.57;81.07;;;;;;;-2.20;100.00;94923.22;5032856;28;20021;-64
2023/03/06 07:35:18;;;;;;;86.72;62.38;;;;;;;-2.15;100.00;94930.69;5036356;28;20057;-65
2023/03/06 07:37:43;;;;;;;86.68;55.95;;;;;;;-2.10;100.00;94936.44;5032056;28;20060;-64
2023/03/06 07:40:11;;;;;;;76.65;54.60;;;;;;;-2.03;100.00;94935.19;5036666;28;20025;-63
2023/03/06 07:42:36;;;;;;;77.68;51.95;;;;;;;-1.95;100.00;94941.66;5040655;28;20025;-63
2023/03/06 07:45:03;;;;;;;75.03;54.33;;;;;;;-1.89;100.00;94938.75;5035804;28;20067;-62
2023/03/06 07:47:28;;;;;;;75.75;52.72;;;;;;;-1.78;100.00;94932.97;5045683;28;20509;-73
2023/03/06 07:49:55;;;;;;;140.07;90.75;;;;;;;-1.69;100.00;94934.22;5034657;28;20028;-63
2023/03/06 07:52:21;;;;;;;113.60;77.93;;;;;;;-1.62;100.00;94927.81;5038126;28;20039;-65
2023/03/06 07:54:47;;;;;;;96.80;69.00;;;;;;;-1.59;100.00;94927.63;5034719;28;20372;-66
2023/03/06 07:57:12;;;;;;;105.18;71.95;;;;;;;-1.59;100.00;94930.22;5038002;28;20044;-63
2023/03/06 07:59:37;;;;;;;150.73;101.13;;;;;;;-1.53;100.00;94936.78;5034537;28;20095;-63
2023/03/06 08:02:03;;;;;;;110.20;76.28;;;;;;;-0.97;100.00;94933.59;5037850;28;20087;-65
2023/03/06 08:04:28;;;;;;;93.07;66.22;;;;;;;-0.34;100.00;94927.22;5044176;28;20092;-65
2023/03/06 08:06:56;;;;;;;97.18;63.63;;;;;;;0.21;100.00;94927.31;5032546;28;20032;-57
2023/03/06 08:09:22;;;;;;;121.10;78.57;;;;;;;0.45;100.00;94924.06;5035879;28;20029;-66
2023/03/06 08:11:47;;;;;;;90.15;63.00;;;;;;;0.75;100.00;94932.56;5058053;28;20029;-66
2023/03/06 08:14:12;;;;;;;72.78;50.78;;;;;;;1.12;100.00;94923.16;5050768;28;20024;-66
2023/03/06 08:16:38;;;;;;;68.90;49.38;;;;;;;1.40;100.00;94931.66;5040764;28;20095;-66
2023/03/06 08:19:03;;;;;;;64.32;45.03;;;;;;;1.77;97.50;94917.94;5032370;28;20053;-66
2023/03/06 08:21:29;;;;;;;88.65;54.90;;;;;;;2.15;95.06;94929.16;5041508;28;20048;-67
2023/03/06 08:23:55;;;;;;;61.92;44.17;;;;;;;2.41;91.80;94916.88;5034613;28;20031;-67
2023/03/06 08:26:23;;;;;;;66.82;45.78;;;;;;;2.54;89.48;94916.00;5041997;28;20040;-65
2023/03/06 08:28:53;;;;;;;51.92;37.63;;;;;;;2.66;90.01;94919.47;5046177;28;20040;-64
2023/03/06 08:31:25;;;;;;;56.17;40.08;;;;;;;3.08;88.10;94911.19;5040660;28;20031;-62
2023/03/06 08:33:50;;;;;;;55.00;40.40;;;;;;;3.54;87.97;94915.53;5033044;28;20092;-63
2023/03/06 08:36:16;;;;;;;76.78;53.05;;;;;;;3.93;85.10;94911.69;5031986;28;20117;-62
2023/03/06 08:38:41;;;;;;;64.75;43.22;;;;;;;4.15;84.17;94921.28;5036823;28;20055;-62
2023/03/06 08:41:06;;;;;;;49.55;35.70;;;;;;;4.40;81.45;94914.09;5040448;28;20033;-62
2023/03/06 08:43:34;;;;;;;42.78;33.83;;;;;;;4.69;79.74;94910.91;5033126;28;20479;-66
2023/03/06 08:45:59;;;;;;;42.88;31.73;;;;;;;4.84;78.44;94914.88;5042150;28;20031;-61
2023/03/06 08:48:24;;;;;;;38.50;30.77;;;;;;;4.63;75.86;94907.00;5034156;28;20021;-59
2023/03/06 08:50:51;;;;;;;37.90;29.50;;;;;;;4.40;76.28;94914.91;5031248;28;20064;-60
2023/03/06 08:53:17;;;;;;;42.03;31.15;;;;;;;4.47;76.54;94910.03;5044789;28;20013;-60
2023/03/06 08:55:43;;;;;;;42.00;31.92;;;;;;;4.47;75.84;94907.44;5031262;28;20048;-59
2023/03/06 08:58:09;;;;;;;47.70;36.13;;;;;;;4.68;76.20;94910.09;5035346;28;20025;-59
2023/03/06 09:00:35;;;;;;;48.63;36.95;;;;;;;4.57;76.75;94912.72;5039300;28;20564;-59
2023/03/06 09:03:01;;;;;;;52.22;39.00;;;;;;;4.45;77.10;94906.72;5030265;28;20057;-59
2023/03/06 09:05:26;;;;;;;54.97;38.50;;;;;;;4.50;77.78;94894.16;5049283;28;20060;-60
2023/03/06 09:07:52;;;;;;;55.55;41.55;;;;;;;4.50;78.06;94904.56;5033667;28;20071;-63
2023/03/06 09:10:20;;;;;;;55.70;41.33;;;;;;;4.48;78.55;94903.06;5052663;28;20028;-61
2023/03/06 09:12:45;;;;;;;56.25;40.28;;;;;;;4.85;77.38;94894.81;5032260;28;20104;-61
2023/03/06 09:15:11;;;;;;;62.03;41.67;;;;;;;4.85;77.83;94890.44;5030351;28;20116;-61
2023/03/06 09:17:37;;;;;;;54.85;39.92;;;;;;;5.37;74.78;94894.88;5028987;28;20583;-63
2023/03/06 09:20:04;;;;;;;65.03;45.00;;;;;;;5.26;75.78;94897.59;5030299;28;20100;-61
2023/03/06 09:22:29;;;;;;;58.08;44.13;;;;;;;5.34;73.97;94900.38;5035628;28;20036;-60
2023/03/06 09:24:55;;;;;;;68.22;45.08;;;;;;;5.40;75.29;94904.25;5038282;28;20025;-60
2023/03/06 09:27:21;;;;;;;59.55;43.53;;;;;;;5.83;74.70;94902.34;5044209;28;20033;-57
2023/03/06 09:29:47;;;;;;;59.78;43.95;;;;;;;5.74;72.92;94898.75;5042722;28;20013;-58
2023/03/06 09:32:12;;;;;;;63.83;44.47;;;;;;;6.11;70.24;94898.22;5042227;28;20128;-58
2023/03/06 09:34:38;;;;;;;58.33;43.88;;;;;;;6.01;70.25;94902.59;5048909;28;20028;-57
2023/03/06 09:37:03;;;;;;;58.45;44.00;;;;;;;5.89;70.77;94899.25;5049381;28;20105;-56
2023/03/06 09:39:29;;;;;;;56.75;44.40;;;;;;;5.62;71.50;94894.59;5049080;28;20021;-57
2023/03/06 09:41:56;;;;;;;60.35;43.60;;;;;;;5.91;71.00;94886.88;5048863;28;20025;-72
2023/03/06 09:44:25;;;;;;;55.63;41.47;;;;;;;6.46;68.54;94890.84;5048465;28;20124;-62
2023/03/06 09:47:15;;;;;;;65.05;47.17;;;;;;;6.14;67.78;94897.13;5049563;28;20025;-61
2023/03/06 09:49:52;;;;;;;61.28;45.88;;;;;;;6.22;67.81;94884.22;5030210;28;20033;-62
2023/03/06 09:52:39;;;;;;;61.03;44.80;;;;;;;6.57;67.62;94892.50;5029689;28;20022;-60
2023/03/06 09:55:16;;;;;;;62.35;44.72;;;;;;;6.75;66.85;94882.22;5029355;28;20025;-61
2023/03/06 09:57:44;;;;;;;60.13;46.70;;;;;;;7.07;66.39;94891.53;5037318;28;20049;-61
2023/03/06 10:00:15;;;;;;;61.72;44.40;;;;;;;7.33;64.92;94893.53;5035561;28;20167;-62
2023/03/06 10:02:45;;;;;;;62.53;43.90;;;;;;;7.26;64.13;94887.22;5049130;28;20021;-65
2023/03/06 10:05:22;;;;;;;57.22;42.42;;;;;;;7.36;64.54;94887.22;5048329;28;20029;-62
2023/03/06 10:07:54;;;;;;;61.35;45.47;;;;;;;7.21;64.56;94885.03;5048740;28;20040;-61
2023/03/06 10:10:27;;;;;;;60.45;45.95;;;;;;;7.57;62.87;94879.13;5049467;28;20025;-61
2023/03/06 10:13:01;;;;;;;62.67;44.70;;;;;;;7.73;62.00;94884.59;5035431;28;20035;-62
2023/03/06 10:15:40;;;;;;;70.63;46.00;;;;;;;7.89;61.45;94883.97;5042801;28;20115;-61
2023/03/06 10:18:05;;;;;;;62.42;44.42;;;;;;;8.00;60.96;94885.56;5036905;28;20562;-62
2023/03/06 10:20:57;;;;;;;66.00;48.50;;;;;;;7.84;61.48;94885.38;5046471;28;20086;-69
2023/03/06 10:23:41;;;;;;;55.67;42.00;;;;;;;8.08;59.88;94884.03;5047336;28;20020;-63
2023/03/06 10:26:15;;;;;;;60.33;44.67;;;;;;;7.49;62.88;94881.66;5045298;28;20482;-58
2023/03/06 10:29:09;;;;;;;63.50;44.65;;;;;;;7.72;61.74;94879.50;5047547;28;20048;-58
2023/03/06 10:31:38;;;;;;;66.90;44.15;;;;;;;7.85;61.40;94880.00;5029253;28;20029;-58
2023/03/06 10:34:27;;;;;;;58.88;44.88;;;;;;;7.86;61.02;94881.66;5042592;28;20394;-58
2023/03/06 10:36:53;;;;;;;58.13;41.58;;;;;;;8.21;61.29;94881.88;5029549;28;20121;-60
2023/03/06 10:39:20;;;;;;;56.45;43.67;;;;;;;8.27;60.67;94870.78;5030116;28;20625;-58
2023/03/06 10:41:47;;;;;;;62.08;42.67;;;;;;;8.28;59.23;94888.16;5040670;28;20025;-70
2023/03/06 10:44:12;;;;;;;61.03;43.47;;;;;;;8.54;58.69;94884.88;5031158;28;20049;-63
2023/03/06 10:46:43;;;;;;;60.25;43.17;;;;;;;8.48;58.75;94888.06;5029637;28;20537;-63
2023/03/06 10:49:28;;;;;;;56.55;41.67;;;;;;;8.95;58.06;94887.03;5034530;28;20029;-60
2023/03/06 10:51:55;;;;;;;;;;;;;;;9.21;55.27;94890.69;5035156;28;20029;-60
2023/03/06 10:54:21;;;;;;;52.65;39.05;;;;;;;9.27;55.44;94893.50;5032292;28;19992;-60
2023/03/06 10:56:46;;;;;;;52.17;39.80;;;;;;;9.32;55.34;94890.44;5033634;28;20056;-60
2023/03/06 10:59:24;;;;;;;53.85;41.28;;;;;;;9.54;53.90;94896.16;5033303;28;20040;-66
2023/03/06 11:02:08;;;;;;;54.92;41.53;;;;;;;10.07;54.58;94890.84;5037543;28;20029;-61
2023/03/06 11:04:35;;;;;;;52.70;40.88;;;;;;;10.45;52.41;94891.31;5045044;28;20028;-67
2023/03/06 11:07:23;;;;;;;52.33;40.53;;;;;;;10.75;51.13;94881.19;5031135;28;20494;-68
2023/03/06 11:09:57;;;;;;;51.00;38.63;;;;;;;11.07;50.46;94881.34;5043581;28;20029;-67
2023/03/06 11:12:31;;;;;;;50.35;38.33;;;;;;;11.52;49.84;94882.63;5040045;28;20067;-67
2023/03/06 11:15:05;;;;;;;46.35;35.83;;;;;;;11.79;46.59;94885.03;5041783;28;20151;-69